Lake Cormorant, Mississippi
Current Conditions -  °F | °C
As of 4:54 PM on Wednesday 17 Dec 2014 (Local Time) from KMEM Reporting Station
Overcast Overcast  
Wind Chill: 35°   Ceiling: 18000
Heat Index: 40°   Visibility: 10mi
Dew Point: 32°   Wind: 7mph
Humidity: 73%   Direction: 340°NNW
Pressure: 30.27"   Gusts: NA
Location:  34.9°N, 90.21°W
Report Text: KMEM 172254Z 34006KT 10SM FEW017 SCT050 OVC180 04/00 A3027 RMK AO2 SLPNO T00440000 $
Loading
Personal Weather Stations






























Interactive Weather Map New forecast layout! Learn more

10-Day Weather Forecast

Advertisements
Track Severe Weather on mobile